createdAt,value
2018-06-18T00:02:04.829Z,16.09
2018-06-18T00:04:33.906Z,15.92
2018-06-18T00:07:03.185Z,15.86
2018-06-18T00:09:43.946Z,15.96
2018-06-18T00:12:13.046Z,15.92
2018-06-18T00:14:42.306Z,15.90
2018-06-18T00:17:11.402Z,15.84
2018-06-18T00:22:16.486Z,15.93
2018-06-18T00:24:46.588Z,15.92
2018-06-18T00:27:15.659Z,15.89
2018-06-18T00:29:44.770Z,15.88
2018-06-18T00:32:13.844Z,15.89
2018-06-18T00:34:42.926Z,15.82
2018-06-18T00:37:12.023Z,15.83
2018-06-18T00:39:41.179Z,15.89
2018-06-18T00:42:10.234Z,15.87
2018-06-18T00:47:16.078Z,15.93
2018-06-18T00:49:52.735Z,15.87
2018-06-18T00:52:21.802Z,15.79
2018-06-18T00:54:50.869Z,15.84
2018-06-18T00:57:21.729Z,15.81
2018-06-18T00:59:50.985Z,15.75
2018-06-18T01:04:55.763Z,15.76
2018-06-18T01:10:03.110Z,15.79
2018-06-18T01:12:36.075Z,15.77
2018-06-18T01:15:05.298Z,15.80
2018-06-18T01:17:35.422Z,15.67
2018-06-18T01:20:05.497Z,15.61
2018-06-18T01:22:34.584Z,15.57
2018-06-18T01:25:04.614Z,15.58
2018-06-18T01:27:33.903Z,15.59
2018-06-18T01:30:09.017Z,15.65
2018-06-18T01:32:38.273Z,15.68
2018-06-18T01:35:07.350Z,15.70
2018-06-18T01:37:36.415Z,15.79
2018-06-18T01:40:05.774Z,15.76
2018-06-18T01:42:34.846Z,15.81
2018-06-18T01:50:27.369Z,15.82
2018-06-18T01:53:09.484Z,15.77
2018-06-18T01:55:38.703Z,15.77
2018-06-18T01:58:07.750Z,15.73
2018-06-18T02:00:36.825Z,15.71
2018-06-18T02:03:20.628Z,15.68
2018-06-18T02:06:08.706Z,15.58
2018-06-18T02:08:37.769Z,15.54
2018-06-18T02:14:08.993Z,15.38
2018-06-18T02:16:38.419Z,15.35
2018-06-18T02:19:20.535Z,15.33
2018-06-18T02:21:49.633Z,15.30
2018-06-18T02:24:20.514Z,15.32
2018-06-18T02:26:49.587Z,15.37
2018-06-18T02:32:00.024Z,15.37
2018-06-18T02:42:29.009Z,15.66
2018-06-18T02:44:58.096Z,15.50
2018-06-18T02:50:02.879Z,15.38
2018-06-18T02:55:09.661Z,15.25
2018-06-18T02:57:38.955Z,15.38
2018-06-18T03:00:08.001Z,15.30
2018-06-18T03:05:15.990Z,15.33
2018-06-18T03:07:45.096Z,15.21
2018-06-18T03:10:14.223Z,15.17
2018-06-18T03:15:19.057Z,15.21
2018-06-18T03:17:49.800Z,15.30
2018-06-18T03:31:45.500Z,15.39
2018-06-18T03:34:15.578Z,15.24
2018-06-18T03:36:45.188Z,15.18
2018-06-18T03:39:18.334Z,15.20
2018-06-18T03:41:48.536Z,15.19
2018-06-18T03:44:29.653Z,15.12
2018-06-18T03:46:58.759Z,15.06
2018-06-18T03:49:35.389Z,15.06
2018-06-18T03:52:04.463Z,15.11
2018-06-18T03:54:44.074Z,15.05
2018-06-18T03:57:16.944Z,15.11
2018-06-18T03:59:46.373Z,15.09
2018-06-18T04:13:39.277Z,15.34
2018-06-18T04:16:12.086Z,15.28
2018-06-18T04:18:44.126Z,15.29
2018-06-18T04:23:50.143Z,15.40
2018-06-18T04:26:33.049Z,15.28
2018-06-18T04:29:02.155Z,15.30
2018-06-18T04:34:09.817Z,15.53
2018-06-18T04:36:39.917Z,15.55
2018-06-18T04:39:09.981Z,15.57
2018-06-18T04:41:39.156Z,15.62
2018-06-18T04:46:44.350Z,15.61
2018-06-18T04:51:50.778Z,16.05
2018-06-18T04:54:24.395Z,15.87
2018-06-18T04:57:02.510Z,15.72
2018-06-18T04:59:33.566Z,15.66
2018-06-18T05:02:06.154Z,15.75
2018-06-18T05:04:36.174Z,15.84
2018-06-18T05:07:06.380Z,16.11
2018-06-18T05:09:36.642Z,16.19
2018-06-18T05:12:05.720Z,16.05
2018-06-18T05:14:34.809Z,16.26
2018-06-18T05:17:04.174Z,16.43
2018-06-18T05:19:33.248Z,16.53
2018-06-18T05:22:02.317Z,16.54
2018-06-18T05:24:38.432Z,16.61
2018-06-18T05:27:08.478Z,16.77
2018-06-18T05:29:37.645Z,16.75
2018-06-18T05:32:06.790Z,16.80
2018-06-18T05:37:24.899Z,17.03
2018-06-18T05:39:54.417Z,17.01
2018-06-18T05:42:27.454Z,17.01
2018-06-18T05:45:01.613Z,17.37
2018-06-18T05:53:26.402Z,17.81
2018-06-18T05:55:59.345Z,17.45
2018-06-18T05:58:38.024Z,17.57
2018-06-18T06:01:10.631Z,17.53
2018-06-18T06:03:42.840Z,17.73
2018-06-18T06:06:14.997Z,18.06
2018-06-18T06:08:44.184Z,18.07
2018-06-18T06:11:14.162Z,17.85
2018-06-18T06:13:43.235Z,17.70
2018-06-18T06:16:14.250Z,17.59
2018-06-18T06:18:43.481Z,17.42
2018-06-18T06:21:14.509Z,17.81
2018-06-18T06:23:43.573Z,17.74
2018-06-18T06:26:12.648Z,18.04
2018-06-18T06:28:41.695Z,18.21
2018-06-18T06:31:10.764Z,18.68
2018-06-18T06:33:39.830Z,18.53
2018-06-18T06:36:19.135Z,18.60
2018-06-18T06:38:48.258Z,18.22
2018-06-18T06:43:53.098Z,17.69
2018-06-18T06:48:59.487Z,17.69
2018-06-18T06:51:30.429Z,17.35
2018-06-18T06:54:03.295Z,17.35
2018-06-18T07:01:46.114Z,17.45
2018-06-18T07:04:15.843Z,17.77
2018-06-18T07:06:45.317Z,18.05
2018-06-18T07:09:14.705Z,18.20
2018-06-18T07:11:43.822Z,18.56
2018-06-18T07:14:12.885Z,19.13
2018-06-18T07:16:41.955Z,19.60
2018-06-18T07:21:47.733Z,19.13
2018-06-18T07:24:16.833Z,18.84
2018-06-18T07:26:46.191Z,18.65
2018-06-18T07:31:51.022Z,19.48
2018-06-18T07:34:21.224Z,19.97
2018-06-18T07:36:50.274Z,20.23
2018-06-18T07:39:30.900Z,20.62
2018-06-18T07:42:01.863Z,21.09
2018-06-18T07:44:32.841Z,20.74
2018-06-18T07:47:01.910Z,20.35
2018-06-18T07:49:31.944Z,20.47
2018-06-18T07:52:02.174Z,20.68
2018-06-18T07:54:33.141Z,20.93
2018-06-18T07:57:02.297Z,21.30
2018-06-18T08:02:07.138Z,21.80
2018-06-18T08:04:44.530Z,22.46
2018-06-18T08:07:13.720Z,22.43
2018-06-18T08:10:05.884Z,22.71
2018-06-18T08:12:34.961Z,22.54
2018-06-18T08:15:05.962Z,22.99
2018-06-18T08:17:35.095Z,22.44
2018-06-18T08:20:06.046Z,22.09
2018-06-18T08:22:49.904Z,22.32
2018-06-18T08:25:18.953Z,22.04
2018-06-18T08:27:57.005Z,22.18
2018-06-18T08:30:39.542Z,21.57
2018-06-18T08:33:08.618Z,22.14
2018-06-18T08:35:39.245Z,22.19
2018-06-18T08:38:08.330Z,23.03
2018-06-18T08:40:37.494Z,23.50
2018-06-18T08:43:10.823Z,24.04
2018-06-18T08:45:39.994Z,23.70
2018-06-18T08:48:10.016Z,24.17
2018-06-18T08:50:46.890Z,23.76
2018-06-18T09:02:06.039Z,24.94
2018-06-18T09:04:35.121Z,25.74
2018-06-18T09:07:04.254Z,25.92
2018-06-18T09:09:46.276Z,25.47
2018-06-18T09:12:15.346Z,24.30
2018-06-18T09:14:46.302Z,24.90
2018-06-18T09:17:15.362Z,24.80
2018-06-18T09:19:48.096Z,24.04
2018-06-18T09:22:17.392Z,23.59
2018-06-18T09:27:57.381Z,24.24
2018-06-18T09:30:26.444Z,26.39
2018-06-18T09:35:35.733Z,28.23
2018-06-18T09:38:05.691Z,27.98
2018-06-18T09:40:52.356Z,27.68
2018-06-18T09:43:21.531Z,26.14
2018-06-18T09:48:38.447Z,29.92
2018-06-18T10:00:05.854Z,29.12
2018-06-18T10:02:38.138Z,27.77
2018-06-18T10:05:07.285Z,27.10
2018-06-18T10:07:36.323Z,27.52
2018-06-18T10:10:05.385Z,27.50
2018-06-18T10:12:34.909Z,28.18
2018-06-18T10:15:04.160Z,27.97
2018-06-18T10:17:34.482Z,27.51
2018-06-18T10:22:57.667Z,25.16
2018-06-18T10:25:27.668Z,24.31
2018-06-18T10:27:56.724Z,25.19
2018-06-18T10:30:26.211Z,26.70
2018-06-18T10:33:08.727Z,27.10
2018-06-18T10:39:01.743Z,30.03
2018-06-18T10:44:28.165Z,32.48
2018-06-18T10:46:57.323Z,32.82
2018-06-18T10:49:26.369Z,33.16
2018-06-18T10:51:55.461Z,30.81
2018-06-18T10:54:24.567Z,29.52
2018-06-18T10:59:29.591Z,31.22
2018-06-18T11:02:05.846Z,31.01
2018-06-18T11:04:57.633Z,30.79
2018-06-18T11:10:02.543Z,30.28
2018-06-18T11:15:22.125Z,31.41
2018-06-18T11:17:51.385Z,31.69
2018-06-18T11:23:19.218Z,30.46
2018-06-18T11:28:24.323Z,32.96
2018-06-18T11:31:08.725Z,32.48
2018-06-18T11:33:43.642Z,34.00
2018-06-18T11:36:12.837Z,32.07
2018-06-18T11:39:00.119Z,30.42
2018-06-18T11:41:52.127Z,30.07
2018-06-18T11:44:21.290Z,30.50
2018-06-18T11:46:50.390Z,30.20
2018-06-18T11:49:19.448Z,29.18
2018-06-18T11:51:49.395Z,30.33
2018-06-18T11:54:18.500Z,29.98
2018-06-18T11:59:23.353Z,30.81
2018-06-18T12:13:01.930Z,32.83
2018-06-18T12:18:06.772Z,32.35
2018-06-18T12:20:37.782Z,35.13
2018-06-18T12:23:06.953Z,33.10
2018-06-18T12:25:36.000Z,32.16
2018-06-18T12:28:07.087Z,34.09
2018-06-18T12:30:49.460Z,32.18
2018-06-18T12:33:18.520Z,31.00
2018-06-18T12:35:48.551Z,30.33
2018-06-18T12:38:17.709Z,30.57
2018-06-18T12:43:23.724Z,35.02
2018-06-18T12:46:09.535Z,34.57
2018-06-18T12:51:20.883Z,30.51
2018-06-18T12:56:50.853Z,31.17
2018-06-18T12:59:19.908Z,30.60
2018-06-18T13:01:59.037Z,29.47
2018-06-18T13:04:28.193Z,30.32
2018-06-18T13:06:59.190Z,29.97
2018-06-18T13:09:28.243Z,31.92
2018-06-18T13:11:57.334Z,31.68
2018-06-18T13:14:26.433Z,31.31
2018-06-18T13:16:55.521Z,31.47
2018-06-18T13:19:24.554Z,33.70
2018-06-18T13:22:04.020Z,36.20
2018-06-18T13:24:36.206Z,35.60
2018-06-18T13:27:06.563Z,35.22
2018-06-18T13:29:35.936Z,32.92
2018-06-18T13:32:04.981Z,34.07
2018-06-18T13:34:34.050Z,36.59
2018-06-18T13:37:05.353Z,36.41
2018-06-18T13:42:35.894Z,34.62
2018-06-18T13:50:37.062Z,39.39
2018-06-18T13:53:18.673Z,37.12
2018-06-18T13:55:51.260Z,34.96
2018-06-18T13:58:32.519Z,35.45
2018-06-18T14:01:07.669Z,32.89
2018-06-18T14:03:40.271Z,31.30
2018-06-18T14:06:15.263Z,31.14
2018-06-18T14:08:44.302Z,31.48
2018-06-18T14:11:30.927Z,31.46
2018-06-18T14:16:35.963Z,33.72
2018-06-18T14:19:10.369Z,33.42
2018-06-18T14:21:40.419Z,33.88
2018-06-18T14:24:14.013Z,33.97
2018-06-18T14:26:43.185Z,35.19
2018-06-18T14:29:24.645Z,35.14
2018-06-18T14:40:30.530Z,29.64
2018-06-18T14:42:59.633Z,30.82
2018-06-18T14:45:28.700Z,30.95
2018-06-18T14:47:58.123Z,31.67
2018-06-18T14:50:27.176Z,30.07
2018-06-18T14:52:56.282Z,29.66
2018-06-18T14:55:28.651Z,30.87
2018-06-18T14:58:06.545Z,31.71
2018-06-18T15:00:35.662Z,32.07
2018-06-18T15:03:04.711Z,31.89
2018-06-18T15:05:34.937Z,31.18
2018-06-18T15:08:03.969Z,32.07
2018-06-18T15:10:34.478Z,30.86
2018-06-18T15:13:04.724Z,28.72
2018-06-18T15:15:35.332Z,30.58
2018-06-18T15:18:04.412Z,33.77
2018-06-18T15:20:34.817Z,32.92
2018-06-18T15:23:04.267Z,33.31
2018-06-18T15:25:34.196Z,33.50
2018-06-18T15:30:39.231Z,30.40
2018-06-18T15:33:08.284Z,30.85
2018-06-18T15:35:37.453Z,31.74
2018-06-18T15:38:08.599Z,33.33
2018-06-18T15:40:37.684Z,33.60
2018-06-18T15:43:10.529Z,33.40
2018-06-18T15:45:39.679Z,31.71
2018-06-18T15:48:16.970Z,31.56
2018-06-18T15:50:46.933Z,34.19
2018-06-18T15:55:52.687Z,33.51
2018-06-18T16:03:40.334Z,28.67
2018-06-18T16:06:09.398Z,26.53
2018-06-18T16:08:38.488Z,27.57
2018-06-18T16:14:18.351Z,27.65
2018-06-18T16:19:24.329Z,25.58
2018-06-18T16:24:29.126Z,30.79
2018-06-18T16:27:05.500Z,31.08
2018-06-18T16:29:35.090Z,27.32
2018-06-18T16:32:14.211Z,25.66
2018-06-18T16:34:43.270Z,24.87
2018-06-18T16:37:12.341Z,24.21
2018-06-18T16:39:42.282Z,24.35
2018-06-18T16:44:51.538Z,25.11
2018-06-18T16:47:28.213Z,25.38
2018-06-18T16:49:57.328Z,24.59
2018-06-18T16:52:28.510Z,24.39
2018-06-18T16:55:02.665Z,24.17
2018-06-18T16:57:31.855Z,24.27
2018-06-18T17:00:05.289Z,24.52
2018-06-18T17:02:34.774Z,24.81
2018-06-18T17:05:03.822Z,24.74
2018-06-18T17:07:32.877Z,24.35
2018-06-18T17:10:02.107Z,24.55
2018-06-18T17:12:31.168Z,24.71
2018-06-18T17:15:00.226Z,24.50
2018-06-18T17:17:34.625Z,24.37
2018-06-18T17:20:03.670Z,23.97
2018-06-18T17:22:34.695Z,23.78
2018-06-18T17:25:03.749Z,23.69
2018-06-18T17:30:09.059Z,23.83
2018-06-18T17:32:39.069Z,23.92
2018-06-18T17:35:08.210Z,23.69
2018-06-18T17:37:41.563Z,23.78
2018-06-18T17:40:10.689Z,23.60
2018-06-18T17:45:15.763Z,23.77
2018-06-18T17:47:44.829Z,23.78
2018-06-18T17:50:13.948Z,23.69
2018-06-18T17:52:55.477Z,23.50
2018-06-18T17:55:28.293Z,23.16
2018-06-18T17:57:57.412Z,23.22
2018-06-18T18:00:30.064Z,23.15
2018-06-18T18:02:59.210Z,22.89
2018-06-18T18:05:28.266Z,22.81
2018-06-18T18:07:57.334Z,22.71
2018-06-18T18:10:26.450Z,22.75
2018-06-18T18:12:56.386Z,22.60
2018-06-18T18:15:27.445Z,22.44
2018-06-18T18:17:56.601Z,22.24
2018-06-18T18:20:26.646Z,22.28
2018-06-18T18:22:55.719Z,21.99
2018-06-18T18:25:24.774Z,21.82
2018-06-18T18:27:54.856Z,21.44
2018-06-18T18:30:26.214Z,21.34
2018-06-18T18:32:55.311Z,21.26
2018-06-18T18:35:25.390Z,21.23
2018-06-18T18:37:54.494Z,21.02
2018-06-18T18:42:59.314Z,20.51
2018-06-18T18:45:29.380Z,20.21
2018-06-18T18:47:58.442Z,19.88
2018-06-18T18:50:27.609Z,19.76
2018-06-18T18:52:57.562Z,19.70
2018-06-18T18:59:06.330Z,19.74
2018-06-18T19:01:37.385Z,19.39
2018-06-18T19:04:06.563Z,19.16
2018-06-18T19:06:35.797Z,19.10
2018-06-18T19:09:04.849Z,18.95
2018-06-18T19:11:33.947Z,18.82
2018-06-18T19:14:02.946Z,18.87
2018-06-18T19:16:33.116Z,18.67
2018-06-18T19:19:02.222Z,18.45
2018-06-18T19:21:33.258Z,18.22
2018-06-18T19:24:02.305Z,18.09
2018-06-18T19:26:31.365Z,18.05
2018-06-18T19:29:01.330Z,18.13
2018-06-18T19:31:30.389Z,17.93
2018-06-18T19:33:59.443Z,17.76
2018-06-18T19:36:28.488Z,17.63
2018-06-18T19:38:57.578Z,17.73
2018-06-18T19:41:26.648Z,17.70
2018-06-18T19:43:55.679Z,17.51
2018-06-18T19:46:24.827Z,17.42
2018-06-18T19:48:53.882Z,17.27
2018-06-18T19:51:26.354Z,17.31
2018-06-18T19:53:55.407Z,17.12
2018-06-18T19:56:24.500Z,16.96
2018-06-18T19:58:53.517Z,16.84
2018-06-18T20:01:22.612Z,16.75
2018-06-18T20:03:51.738Z,16.69
2018-06-18T20:06:21.777Z,16.62
2018-06-18T20:08:50.852Z,16.47
2018-06-18T20:11:19.904Z,16.45
2018-06-18T20:13:49.875Z,16.45
2018-06-18T20:16:18.929Z,16.46
2018-06-18T20:18:47.990Z,16.46
2018-06-18T20:21:17.037Z,16.62
2018-06-18T20:23:46.090Z,16.62
2018-06-18T20:26:15.166Z,16.67
2018-06-18T20:31:19.937Z,16.48
2018-06-18T20:33:49.958Z,16.47
2018-06-18T20:36:19.001Z,16.36
2018-06-18T20:38:48.970Z,16.27
2018-06-18T20:41:18.055Z,16.23
2018-06-18T20:43:47.140Z,16.18
2018-06-18T20:46:16.191Z,16.16
2018-06-18T20:51:21.088Z,16.04
2018-06-18T20:56:25.878Z,16.39
2018-06-18T20:58:54.961Z,16.23
2018-06-18T21:01:24.021Z,16.12
2018-06-18T21:03:53.058Z,16.03
2018-06-18T21:06:23.069Z,16.03
2018-06-18T21:08:52.135Z,16.10
2018-06-18T21:11:21.352Z,16.07
2018-06-18T21:16:26.182Z,16.16
2018-06-18T21:18:55.300Z,15.95
2018-06-18T21:21:26.285Z,15.82
2018-06-18T21:23:55.368Z,15.69
2018-06-18T21:26:26.371Z,15.78
2018-06-18T21:28:55.419Z,15.79
2018-06-18T21:31:25.450Z,15.67
2018-06-18T21:33:54.551Z,15.63
2018-06-18T21:36:23.574Z,15.73
2018-06-18T21:38:52.634Z,15.70
2018-06-18T21:41:21.773Z,15.68
2018-06-18T21:43:50.837Z,15.47
2018-06-18T21:46:19.903Z,15.32
2018-06-18T21:48:48.997Z,15.23
2018-06-18T21:51:18.047Z,15.25
2018-06-18T21:53:47.237Z,15.22
2018-06-18T21:58:52.366Z,15.22
2018-06-18T22:01:21.596Z,15.38
2018-06-18T22:06:26.601Z,15.70
2018-06-18T22:11:31.534Z,16.09
2018-06-18T22:14:01.907Z,16.24
2018-06-18T22:16:31.040Z,16.17
2018-06-18T22:19:02.357Z,16.33
2018-06-18T22:21:31.457Z,16.38
2018-06-18T22:24:00.534Z,16.35
2018-06-18T22:26:29.785Z,16.31
2018-06-18T22:31:34.768Z,16.38
2018-06-18T22:34:06.190Z,16.28
2018-06-18T22:36:35.306Z,16.02
2018-06-18T22:39:04.676Z,15.78
2018-06-18T22:41:33.737Z,15.68
2018-06-18T22:44:03.923Z,15.75
2018-06-18T22:46:33.165Z,15.92
2018-06-18T22:49:08.236Z,16.07
2018-06-18T22:51:37.493Z,16.10
2018-06-18T22:54:07.438Z,16.15
2018-06-18T22:56:39.417Z,16.15
2018-06-18T23:01:46.776Z,16.44
2018-06-18T23:04:16.561Z,16.40
2018-06-18T23:09:21.793Z,16.53
2018-06-18T23:11:50.825Z,16.42
2018-06-18T23:14:19.963Z,16.43
2018-06-18T23:19:24.840Z,16.56
2018-06-18T23:24:29.685Z,16.72
2018-06-18T23:26:58.741Z,16.67
2018-06-18T23:29:27.933Z,16.62
2018-06-18T23:31:57.040Z,16.45
2018-06-18T23:34:26.120Z,16.34
2018-06-18T23:36:55.790Z,16.34
2018-06-18T23:39:25.251Z,16.28
2018-06-18T23:41:56.303Z,16.37
2018-06-18T23:44:25.397Z,16.24
2018-06-18T23:46:55.426Z,16.15
2018-06-18T23:49:24.494Z,16.11
2018-06-18T23:51:53.542Z,16.04
2018-06-18T23:54:22.612Z,15.94
2018-06-18T23:59:27.390Z,15.77
